createdAt,value
2019-05-03T05:42:36.164Z,68.17
2019-05-03T05:45:05.696Z,68.12
2019-05-03T05:47:44.828Z,68.03
2019-05-03T05:50:42.169Z,66.34
2019-05-03T05:53:11.563Z,66.82
2019-05-03T05:56:15.756Z,66.72
2019-05-03T05:59:14.709Z,65.81
2019-05-03T06:01:49.248Z,65.02
2019-05-03T06:04:18.423Z,63.76
2019-05-03T06:07:18.715Z,63.84
2019-05-03T06:10:16.678Z,64.49
2019-05-03T06:13:26.328Z,63.85
2019-05-03T06:16:05.440Z,64.30
2019-05-03T06:18:45.164Z,64.21
2019-05-03T06:21:24.966Z,63.35
2019-05-03T06:23:58.784Z,63.04
2019-05-03T06:26:48.205Z,62.19
2019-05-03T06:29:17.557Z,61.39
2019-05-03T06:32:05.407Z,61.65
2019-05-03T06:34:35.442Z,60.91
2019-05-03T06:37:08.054Z,61.76
2019-05-03T06:39:37.502Z,62.14
2019-05-03T06:42:10.056Z,60.50
2019-05-03T06:44:37.538Z,59.80
2019-05-03T06:47:10.488Z,60.74
2019-05-03T06:49:39.218Z,58.90
2019-05-03T06:52:08.672Z,60.00
2019-05-03T06:54:38.013Z,59.17
2019-05-03T06:57:09.784Z,58.48
2019-05-03T06:59:54.999Z,57.85
2019-05-03T07:02:35.509Z,58.98
2019-05-03T07:05:06.149Z,58.42
2019-05-03T07:07:50.317Z,57.37
2019-05-03T07:10:38.617Z,57.08
2019-05-03T07:13:09.047Z,58.07
2019-05-03T07:15:38.266Z,57.78
2019-05-03T07:18:07.469Z,56.95
2019-05-03T07:20:46.256Z,56.04
2019-05-03T07:23:15.791Z,56.69
2019-05-03T07:25:44.941Z,56.51
2019-05-03T07:28:14.918Z,55.75
2019-05-03T07:30:45.434Z,53.97
2019-05-03T07:33:25.464Z,53.95
2019-05-03T07:35:54.850Z,54.87
2019-05-03T07:38:24.832Z,52.83
2019-05-03T07:40:55.148Z,53.63
2019-05-03T07:43:24.661Z,54.20
2019-05-03T07:45:55.243Z,52.48
2019-05-03T07:48:25.455Z,51.21
2019-05-03T07:50:54.834Z,51.32
2019-05-03T07:53:25.164Z,54.03
2019-05-03T07:56:05.370Z,53.38
2019-05-03T07:58:35.271Z,52.92
2019-05-03T08:01:09.761Z,51.79
2019-05-03T08:03:37.516Z,52.11
2019-05-03T08:06:06.701Z,52.81
2019-05-03T08:08:36.070Z,53.10
2019-05-03T08:11:05.471Z,50.87
2019-05-03T08:13:35.544Z,50.51
2019-05-03T08:16:05.847Z,49.56
2019-05-03T08:18:35.618Z,49.63
2019-05-03T08:21:05.710Z,47.17
2019-05-03T08:23:35.876Z,47.95
2019-05-03T08:26:05.765Z,48.72
2019-05-03T08:28:36.752Z,46.25
2019-05-03T08:31:40.656Z,45.66
2019-05-03T08:34:16.098Z,46.26
2019-05-03T08:37:16.464Z,46.58
2019-05-03T08:39:45.657Z,46.98
2019-05-03T08:42:21.272Z,48.32
2019-05-03T08:44:50.441Z,48.17
2019-05-03T08:47:19.599Z,49.51
2019-05-03T08:49:48.769Z,47.36
2019-05-03T08:52:18.007Z,46.72
2019-05-03T08:54:47.152Z,46.89
2019-05-03T08:57:16.335Z,47.17
2019-05-03T08:59:45.586Z,46.02
2019-05-03T09:02:17.636Z,47.13
2019-05-03T09:04:46.375Z,46.51
2019-05-03T09:07:15.867Z,47.03
2019-05-03T09:09:51.384Z,47.57
2019-05-03T09:12:20.562Z,48.22
2019-05-03T09:14:49.845Z,47.63
2019-05-03T09:17:18.981Z,47.09
2019-05-03T09:19:48.138Z,46.46
2019-05-03T09:22:17.337Z,47.62
2019-05-03T09:24:46.476Z,43.62
2019-05-03T09:27:15.951Z,42.42
2019-05-03T09:29:46.172Z,42.73
2019-05-03T09:32:15.489Z,42.57
2019-05-03T09:34:44.627Z,43.35
2019-05-03T09:37:15.516Z,42.58
2019-05-03T09:39:44.745Z,42.18
2019-05-03T09:42:15.709Z,43.12
2019-05-03T09:44:45.169Z,43.14
2019-05-03T09:47:14.701Z,43.67
2019-05-03T09:49:45.376Z,43.72
2019-05-03T09:52:16.211Z,43.40
2019-05-03T09:54:49.389Z,43.98
2019-05-03T09:57:18.563Z,44.61
2019-05-03T09:59:56.615Z,45.74
2019-05-03T10:02:18.623Z,45.92
2019-05-03T10:04:47.859Z,44.87
2019-05-03T10:07:17.338Z,45.52
2019-05-03T10:09:46.549Z,46.06
2019-05-03T10:12:19.989Z,46.07
2019-05-03T10:14:49.274Z,44.11
2019-05-03T10:17:43.192Z,44.72
2019-05-03T10:20:15.308Z,42.97
2019-05-03T10:22:44.673Z,40.90
2019-05-03T10:25:15.442Z,42.64
2019-05-03T10:27:47.701Z,43.02
2019-05-03T10:30:24.163Z,42.32
2019-05-03T10:32:58.868Z,43.11
2019-05-03T10:35:28.140Z,42.03
2019-05-03T10:37:57.305Z,40.64
2019-05-03T10:40:27.520Z,39.86
2019-05-03T10:42:56.842Z,40.54
2019-05-03T10:45:28.143Z,40.95
2019-05-03T10:47:57.177Z,41.75
2019-05-03T10:50:26.339Z,41.42
2019-05-03T10:53:02.293Z,42.31
2019-05-03T10:55:31.476Z,43.26
2019-05-03T10:58:19.607Z,42.37
2019-05-03T11:00:53.331Z,43.80
2019-05-03T11:03:21.933Z,44.78
2019-05-03T11:05:51.124Z,43.27
2019-05-03T11:08:20.275Z,45.22
2019-05-03T11:10:49.411Z,44.65
2019-05-03T11:13:18.648Z,44.32
2019-05-03T11:15:47.814Z,43.78
2019-05-03T11:18:16.989Z,44.87
2019-05-03T11:20:46.179Z,44.21
2019-05-03T11:23:15.326Z,43.29
2019-05-03T11:25:45.250Z,44.58
2019-05-03T11:28:19.531Z,45.09
2019-05-03T11:30:55.353Z,44.85
2019-05-03T11:33:47.554Z,43.66
2019-05-03T11:36:41.795Z,42.09
2019-05-03T11:39:10.978Z,42.64
2019-05-03T11:41:45.075Z,40.88
2019-05-03T11:44:32.194Z,39.33
2019-05-03T11:47:02.609Z,39.39
2019-05-03T11:49:31.818Z,38.88
2019-05-03T11:52:01.073Z,39.44
2019-05-03T11:54:30.429Z,38.60
2019-05-03T11:57:02.213Z,40.00
2019-05-03T11:59:31.416Z,40.09
2019-05-03T12:02:15.341Z,39.45
2019-05-03T12:04:45.869Z,40.51
2019-05-03T12:07:18.402Z,41.38
2019-05-03T12:09:47.812Z,42.19
2019-05-03T12:12:29.457Z,42.04
2019-05-03T12:14:58.718Z,41.97
2019-05-03T12:17:30.835Z,40.97
2019-05-03T12:20:01.812Z,40.52
2019-05-03T12:22:31.713Z,40.16
2019-05-03T12:25:03.088Z,38.43
2019-05-03T12:27:34.925Z,39.52
2019-05-03T12:30:04.987Z,40.00
2019-05-03T12:32:34.583Z,41.09
2019-05-03T12:35:05.964Z,40.73
2019-05-03T12:37:35.353Z,41.57
2019-05-03T12:40:05.518Z,38.24
2019-05-03T12:42:35.618Z,37.47
2019-05-03T12:45:04.913Z,38.52
2019-05-03T12:47:34.751Z,38.66
2019-05-03T12:50:05.546Z,38.88
2019-05-03T12:52:36.690Z,39.01
2019-05-03T12:55:06.464Z,40.15
2019-05-03T12:57:35.808Z,40.91
2019-05-03T13:00:19.059Z,100.00
2019-05-03T13:02:52.373Z,39.35
2019-05-03T13:05:21.513Z,38.13
2019-05-03T13:08:08.319Z,39.24
2019-05-03T13:10:37.489Z,41.23
2019-05-03T13:13:06.625Z,41.19
2019-05-03T13:15:35.814Z,41.84
2019-05-03T13:18:05.089Z,41.91
2019-05-03T13:20:36.125Z,42.07
2019-05-03T13:23:05.721Z,41.86
2019-05-03T13:25:35.588Z,41.99
2019-05-03T13:28:05.511Z,43.36
2019-05-03T13:30:34.949Z,45.00
2019-05-03T13:33:05.908Z,45.46
2019-05-03T13:35:35.279Z,45.06
2019-05-03T13:38:04.556Z,45.07
2019-05-03T13:40:35.888Z,45.80
2019-05-03T13:43:06.582Z,44.73
2019-05-03T13:45:35.687Z,43.62
2019-05-03T13:48:05.077Z,42.20
2019-05-03T13:50:35.127Z,40.49
2019-05-03T13:53:04.905Z,43.22
2019-05-03T13:55:35.267Z,42.82
2019-05-03T13:58:05.198Z,43.31
2019-05-03T14:00:34.729Z,44.10
2019-05-03T14:03:04.571Z,43.05
2019-05-03T14:05:35.215Z,43.92
2019-05-03T14:08:05.210Z,43.84
2019-05-03T14:10:35.990Z,43.77
2019-05-03T14:13:05.691Z,43.62
2019-05-03T14:15:35.021Z,44.66
2019-05-03T14:18:06.087Z,43.21
2019-05-03T14:21:07.605Z,43.60
2019-05-03T14:23:55.029Z,43.27
2019-05-03T14:26:24.667Z,42.11
2019-05-03T14:28:54.799Z,43.98
2019-05-03T14:31:25.216Z,42.14
2019-05-03T14:33:55.822Z,42.33
2019-05-03T14:36:25.354Z,43.10
2019-05-03T14:38:55.052Z,42.32
2019-05-03T14:41:25.466Z,42.95
2019-05-03T14:43:56.449Z,42.62
2019-05-03T14:46:32.675Z,43.06
2019-05-03T14:48:56.903Z,42.78
2019-05-03T14:51:26.072Z,42.79
2019-05-03T14:53:57.032Z,41.39
2019-05-03T14:56:59.355Z,42.22
2019-05-03T14:59:46.846Z,41.81
2019-05-03T15:02:43.448Z,42.18
2019-05-03T15:05:06.630Z,42.50
2019-05-03T15:07:35.814Z,42.42
2019-05-03T15:10:05.631Z,42.36
2019-05-03T15:12:35.943Z,43.05
2019-05-03T15:15:05.957Z,43.18
2019-05-03T15:17:35.193Z,43.93
2019-05-03T15:20:04.938Z,43.99
2019-05-03T15:22:34.698Z,44.92
2019-05-03T15:25:05.102Z,46.22
2019-05-03T15:27:35.419Z,45.95
2019-05-03T15:30:05.330Z,46.19
2019-05-03T15:32:35.347Z,46.74
2019-05-03T15:35:05.144Z,47.45
2019-05-03T15:37:35.824Z,47.16
2019-05-03T15:40:06.482Z,47.42
2019-05-03T15:42:36.657Z,47.40
2019-05-03T15:45:25.234Z,47.18
2019-05-03T15:48:12.600Z,48.06
2019-05-03T15:50:42.284Z,48.43
2019-05-03T15:53:11.474Z,47.51
2019-05-03T15:55:40.792Z,47.52
2019-05-03T15:58:10.047Z,46.59
2019-05-03T16:00:39.329Z,47.85
2019-05-03T16:03:11.264Z,48.40
2019-05-03T16:05:39.664Z,48.33
2019-05-03T16:08:08.827Z,49.66
2019-05-03T16:10:38.068Z,50.52
2019-05-03T16:13:07.426Z,51.22
2019-05-03T16:15:36.607Z,51.41
2019-05-03T16:18:07.024Z,51.66
2019-05-03T16:20:39.242Z,52.18
2019-05-03T16:23:07.364Z,52.67
2019-05-03T16:25:36.859Z,52.32
2019-05-03T16:28:15.230Z,52.26
2019-05-03T16:30:46.526Z,52.08
2019-05-03T16:33:26.172Z,51.67
2019-05-03T16:35:46.584Z,51.04
2019-05-03T16:38:15.832Z,51.09
2019-05-03T16:40:45.214Z,50.67
2019-05-03T16:43:16.227Z,50.04
2019-05-03T16:45:45.527Z,51.11
2019-05-03T16:48:15.461Z,50.48
2019-05-03T16:50:45.849Z,50.85
2019-05-03T16:53:15.104Z,50.79
2019-05-03T16:55:46.098Z,50.79
2019-05-03T16:58:16.967Z,51.27
2019-05-03T17:00:47.424Z,50.71
2019-05-03T17:03:19.333Z,51.15
2019-05-03T17:06:10.344Z,51.62
2019-05-03T17:09:10.971Z,51.18
2019-05-03T17:11:41.180Z,51.05
2019-05-03T17:14:10.390Z,51.49
2019-05-03T17:16:39.762Z,50.71
2019-05-03T17:19:08.930Z,51.42
2019-05-03T17:21:38.480Z,51.63
2019-05-03T17:24:07.634Z,52.03
